createdAt,value
2022-09-07T00:01:51.837Z,25.90
2022-09-07T00:04:18.941Z,25.90
2022-09-07T00:06:47.788Z,25.80
2022-09-07T00:09:20.035Z,25.70
2022-09-07T00:11:53.374Z,25.60
2022-09-07T00:14:20.787Z,25.60
2022-09-07T00:16:49.704Z,25.50
2022-09-07T00:19:19.667Z,25.50
2022-09-07T00:21:46.636Z,25.40
2022-09-07T00:24:16.601Z,25.40
2022-09-07T00:26:48.409Z,25.40
2022-09-07T00:29:15.610Z,25.30
2022-09-07T00:31:48.552Z,25.30
2022-09-07T00:34:15.627Z,25.30
2022-09-07T00:36:45.301Z,25.30
2022-09-07T00:39:17.304Z,25.30
2022-09-07T00:41:50.790Z,25.20
2022-09-07T00:44:36.589Z,25.20
2022-09-07T00:47:03.390Z,25.20
2022-09-07T00:49:35.349Z,25.20
2022-09-07T00:52:08.182Z,25.10
2022-09-07T00:54:44.704Z,25.20
2022-09-07T00:57:11.494Z,25.20
2022-09-07T00:59:47.087Z,25.30
2022-09-07T01:02:23.957Z,25.50
2022-09-07T01:05:03.627Z,25.60
2022-09-07T01:07:41.366Z,25.70
2022-09-07T01:10:10.206Z,25.90
2022-09-07T01:12:45.440Z,25.90
2022-09-07T01:15:13.313Z,25.90
2022-09-07T01:17:46.202Z,25.90
2022-09-07T01:20:40.744Z,25.80
2022-09-07T01:23:26.301Z,25.70
2022-09-07T01:26:16.713Z,25.60
2022-09-07T01:28:47.511Z,25.60
2022-09-07T01:31:26.725Z,25.50
2022-09-07T01:34:00.857Z,25.40
2022-09-07T01:36:37.556Z,25.40
2022-09-07T01:39:16.458Z,25.40
2022-09-07T01:42:01.783Z,25.30
2022-09-07T01:44:38.839Z,25.30
2022-09-07T01:47:12.029Z,25.30
2022-09-07T01:50:00.049Z,25.20
2022-09-07T01:52:42.151Z,25.20
2022-09-07T01:55:22.141Z,25.20
2022-09-07T01:57:55.106Z,25.20
2022-09-07T02:00:26.847Z,25.20
2022-09-07T02:03:17.181Z,25.20
2022-09-07T02:06:04.782Z,25.20
2022-09-07T02:08:38.582Z,25.20
2022-09-07T02:11:12.949Z,25.20
2022-09-07T02:13:42.787Z,25.40
2022-09-07T02:16:16.463Z,25.50
2022-09-07T02:18:55.393Z,25.60
2022-09-07T02:21:33.043Z,25.80
2022-09-07T02:24:12.890Z,25.90
2022-09-07T02:26:42.293Z,26.00
2022-09-07T02:29:10.510Z,25.90
2022-09-07T02:31:40.122Z,25.90
2022-09-07T02:34:06.965Z,25.80
2022-09-07T02:36:39.599Z,25.70
2022-09-07T02:39:16.584Z,25.60
2022-09-07T02:41:45.780Z,25.60
2022-09-07T02:44:36.473Z,25.50
2022-09-07T02:47:06.193Z,25.50
2022-09-07T02:49:47.372Z,25.40
2022-09-07T02:52:17.391Z,25.40
2022-09-07T02:55:08.538Z,25.40
2022-09-07T02:57:54.195Z,25.30
2022-09-07T03:00:26.190Z,25.30
2022-09-07T03:03:05.490Z,25.30
2022-09-07T03:05:34.420Z,25.20
2022-09-07T03:08:04.589Z,25.20
2022-09-07T03:10:37.522Z,25.20
2022-09-07T03:13:07.237Z,25.20
2022-09-07T03:15:34.301Z,25.20
2022-09-07T03:18:07.155Z,25.20
2022-09-07T03:20:39.956Z,25.20
2022-09-07T03:23:09.542Z,25.10
2022-09-07T03:25:36.501Z,25.10
2022-09-07T03:28:08.669Z,25.20
2022-09-07T03:30:40.269Z,25.30
2022-09-07T03:33:15.246Z,25.50
2022-09-07T03:36:02.530Z,25.60
2022-09-07T03:38:34.393Z,25.60
2022-09-07T03:41:03.818Z,25.10
2022-09-07T03:43:31.179Z,24.70
2022-09-07T03:45:58.772Z,24.40
2022-09-07T03:48:32.423Z,24.00
2022-09-07T03:51:07.627Z,23.80
2022-09-07T03:53:35.318Z,23.50
2022-09-07T03:56:06.213Z,23.20
2022-09-07T03:58:39.000Z,23.00
2022-09-07T04:01:09.899Z,22.80
2022-09-07T04:03:39.765Z,22.70
2022-09-07T04:06:13.010Z,22.60
2022-09-07T04:08:44.180Z,22.60
2022-09-07T04:11:16.197Z,22.50
2022-09-07T04:13:45.521Z,22.50
2022-09-07T04:16:29.706Z,22.50
2022-09-07T04:18:59.458Z,22.50
2022-09-07T04:21:33.937Z,22.50
2022-09-07T04:24:03.720Z,22.50
2022-09-07T04:26:33.462Z,22.50
2022-09-07T04:29:04.055Z,22.50
2022-09-07T04:31:36.411Z,22.50
2022-09-07T04:34:11.701Z,22.50
2022-09-07T04:36:42.749Z,22.40
2022-09-07T04:39:10.001Z,22.40
2022-09-07T04:41:39.294Z,22.40
2022-09-07T04:44:07.620Z,22.30
2022-09-07T04:46:37.590Z,22.30
2022-09-07T04:49:11.647Z,22.30
2022-09-07T04:51:44.900Z,22.30
2022-09-07T04:54:17.061Z,22.20
2022-09-07T04:56:46.465Z,22.10
2022-09-07T04:59:13.513Z,22.10
2022-09-07T05:01:45.967Z,22.00
2022-09-07T05:04:15.597Z,22.00
2022-09-07T05:06:53.027Z,22.00
2022-09-07T05:09:27.341Z,22.00
2022-09-07T05:11:56.504Z,22.00
2022-09-07T05:14:28.761Z,22.00
2022-09-07T05:17:08.829Z,22.20
2022-09-07T05:19:35.774Z,22.40
2022-09-07T05:22:04.550Z,22.60
2022-09-07T05:24:36.937Z,22.80
2022-09-07T05:27:05.241Z,23.00
2022-09-07T05:32:19.174Z,23.20
2022-09-07T05:34:50.888Z,23.30
2022-09-07T05:37:25.279Z,23.40
2022-09-07T05:39:57.422Z,23.50
2022-09-07T05:42:26.311Z,23.50
2022-09-07T05:44:59.505Z,23.60
2022-09-07T05:47:29.409Z,23.70
2022-09-07T05:49:58.811Z,23.70
2022-09-07T05:52:25.678Z,23.70
2022-09-07T05:55:19.256Z,23.80
2022-09-07T05:57:50.186Z,23.80
2022-09-07T06:00:22.664Z,23.80
2022-09-07T06:03:02.770Z,23.80
2022-09-07T06:05:41.223Z,24.00
2022-09-07T06:08:13.450Z,24.20
2022-09-07T06:10:48.697Z,24.40
2022-09-07T06:13:30.227Z,24.50
2022-09-07T06:16:11.566Z,24.70
2022-09-07T06:18:44.493Z,24.80
2022-09-07T06:21:18.454Z,25.00
2022-09-07T06:23:48.669Z,25.00
2022-09-07T06:26:18.436Z,25.00
2022-09-07T06:28:55.895Z,24.90
2022-09-07T06:31:27.382Z,24.90
2022-09-07T06:33:54.577Z,24.80
2022-09-07T06:36:31.351Z,24.80
2022-09-07T06:39:10.331Z,24.70
2022-09-07T06:42:00.784Z,24.70
2022-09-07T06:44:32.332Z,24.60
2022-09-07T06:49:30.167Z,24.60
2022-09-07T06:52:02.282Z,24.60
2022-09-07T06:57:19.470Z,24.50
2022-09-07T06:59:51.278Z,24.50
2022-09-07T07:02:20.581Z,24.50
2022-09-07T07:04:53.261Z,24.50
2022-09-07T07:07:22.715Z,24.50
2022-09-07T07:09:50.053Z,24.50
2022-09-07T07:14:53.536Z,24.50
2022-09-07T07:17:20.380Z,24.50
2022-09-07T07:19:51.168Z,24.40
2022-09-07T07:22:42.955Z,24.50
2022-09-07T07:25:08.253Z,24.50
2022-09-07T07:27:38.601Z,24.50
2022-09-07T07:30:08.470Z,24.60
2022-09-07T07:32:43.140Z,24.80
2022-09-07T07:35:14.591Z,25.00
2022-09-07T07:37:46.858Z,25.20
2022-09-07T07:40:30.339Z,25.20
2022-09-07T07:43:08.484Z,25.20
2022-09-07T07:46:00.084Z,25.20
2022-09-07T07:48:38.484Z,25.10
2022-09-07T07:51:12.129Z,25.00
2022-09-07T07:53:45.584Z,25.00
2022-09-07T07:56:17.186Z,24.90
2022-09-07T07:58:55.139Z,24.90
2022-09-07T08:01:28.956Z,24.90
2022-09-07T08:03:59.831Z,24.80
2022-09-07T08:06:29.592Z,24.80
2022-09-07T08:09:00.018Z,24.80
2022-09-07T08:11:35.771Z,24.80
2022-09-07T08:14:13.418Z,24.80
2022-09-07T08:16:45.703Z,24.70
2022-09-07T08:19:12.635Z,24.70
2022-09-07T08:24:35.956Z,24.70
2022-09-07T08:27:10.236Z,24.70
2022-09-07T08:29:38.622Z,24.80
2022-09-07T08:32:14.315Z,25.00
2022-09-07T08:34:47.820Z,25.20
2022-09-07T08:37:15.324Z,25.30
2022-09-07T08:39:52.184Z,25.40
2022-09-07T08:42:42.660Z,25.50
2022-09-07T08:45:12.822Z,25.50
2022-09-07T08:48:05.063Z,25.40
2022-09-07T08:50:44.144Z,25.40
2022-09-07T08:53:20.715Z,25.30
2022-09-07T08:55:53.824Z,25.20
2022-09-07T08:58:48.337Z,25.20
2022-09-07T09:01:31.433Z,25.10
2022-09-07T09:04:18.818Z,25.10
2022-09-07T09:07:10.084Z,25.00
2022-09-07T09:09:46.319Z,25.00
2022-09-07T09:12:44.651Z,24.90
2022-09-07T09:15:36.205Z,24.90
2022-09-07T09:18:26.589Z,24.90
2022-09-07T09:20:59.049Z,24.90
2022-09-07T09:23:30.867Z,24.90
2022-09-07T09:26:04.979Z,24.80
2022-09-07T09:28:40.497Z,24.80
2022-09-07T09:31:20.086Z,24.80
2022-09-07T09:34:29.414Z,24.80
2022-09-07T09:37:22.448Z,25.00
2022-09-07T09:40:23.540Z,24.80
2022-09-07T09:43:08.579Z,24.90
2022-09-07T09:48:52.879Z,25.20
2022-09-07T09:54:32.301Z,25.60
2022-09-07T09:57:38.108Z,25.70
2022-09-07T10:00:08.419Z,25.70
2022-09-07T10:05:27.953Z,25.60
2022-09-07T10:07:54.781Z,25.50
2022-09-07T10:10:21.658Z,25.40
2022-09-07T10:12:48.307Z,25.40
2022-09-07T10:15:29.204Z,25.30
2022-09-07T10:17:55.829Z,25.20
2022-09-07T10:20:30.029Z,25.30
2022-09-07T10:22:59.746Z,25.20
2022-09-07T10:25:44.240Z,25.20
2022-09-07T10:28:14.178Z,25.10
2022-09-07T10:30:59.804Z,25.10
2022-09-07T10:33:41.643Z,25.10
2022-09-07T10:36:11.537Z,25.00
2022-09-07T10:38:40.315Z,25.00
2022-09-07T10:41:10.001Z,25.10
2022-09-07T10:43:47.367Z,25.20
2022-09-07T10:49:18.413Z,25.50
2022-09-07T10:52:01.583Z,25.70
2022-09-07T10:54:47.039Z,25.80
2022-09-07T10:57:29.478Z,25.80
2022-09-07T11:00:11.531Z,25.70
2022-09-07T11:05:59.259Z,25.50
2022-09-07T11:14:26.498Z,25.40
2022-09-07T11:16:58.334Z,25.30
2022-09-07T11:19:37.638Z,25.20
2022-09-07T11:22:22.849Z,25.30
2022-09-07T11:27:39.927Z,25.20
2022-09-07T11:30:13.845Z,25.20
2022-09-07T11:32:42.404Z,25.20
2022-09-07T11:35:12.200Z,25.30
2022-09-07T11:37:40.251Z,25.40
2022-09-07T11:40:12.288Z,25.50
2022-09-07T11:42:46.524Z,25.70
2022-09-07T11:45:17.362Z,25.80
2022-09-07T11:47:53.583Z,25.90
2022-09-07T11:50:23.567Z,25.90
2022-09-07T11:52:53.501Z,25.80
2022-09-07T11:55:22.459Z,25.80
2022-09-07T11:58:05.336Z,25.70
2022-09-07T12:00:55.588Z,25.60
2022-09-07T12:03:41.018Z,25.60
2022-09-07T12:06:34.260Z,25.40
2022-09-07T12:09:07.299Z,25.40
2022-09-07T12:11:33.930Z,25.40
2022-09-07T12:14:12.741Z,25.40
2022-09-07T12:16:45.497Z,25.30
2022-09-07T12:19:15.097Z,25.30
2022-09-07T12:21:50.932Z,25.30
2022-09-07T12:24:36.353Z,25.20
2022-09-07T12:27:03.845Z,25.20
2022-09-07T12:29:30.568Z,25.30
2022-09-07T12:31:59.740Z,25.40
2022-09-07T12:34:29.622Z,25.60
2022-09-07T12:36:56.315Z,25.70
2022-09-07T12:39:25.156Z,25.90
2022-09-07T12:42:31.790Z,26.00
2022-09-07T12:44:39.500Z,26.00
2022-09-07T12:47:09.411Z,25.80
2022-09-07T12:49:36.066Z,25.80
2022-09-07T12:52:39.612Z,25.80
2022-09-07T12:55:27.089Z,25.70
2022-09-07T12:57:54.961Z,25.60
2022-09-07T13:00:25.738Z,25.60
2022-09-07T13:02:55.988Z,25.50
2022-09-07T13:05:44.115Z,25.50
2022-09-07T13:08:13.949Z,25.40
2022-09-07T13:10:43.742Z,25.40
2022-09-07T13:13:19.053Z,25.40
2022-09-07T13:15:47.072Z,25.30
2022-09-07T13:18:27.734Z,25.30
2022-09-07T13:21:06.636Z,25.30
2022-09-07T13:23:43.229Z,25.30
2022-09-07T13:26:10.841Z,25.40
2022-09-07T13:28:40.167Z,25.60
2022-09-07T13:31:13.179Z,25.80
2022-09-07T13:33:42.203Z,25.90
2022-09-07T13:36:29.138Z,26.00
2022-09-07T13:38:56.909Z,26.10
2022-09-07T13:41:26.258Z,26.00
2022-09-07T13:43:55.815Z,25.90
2022-09-07T13:46:31.167Z,25.80
2022-09-07T13:49:00.786Z,25.80
2022-09-07T13:51:32.230Z,25.80
2022-09-07T13:54:01.461Z,25.60
2022-09-07T13:56:47.013Z,25.60
2022-09-07T13:59:26.738Z,25.50
2022-09-07T14:01:53.515Z,25.50
2022-09-07T14:04:21.802Z,25.40
2022-09-07T14:06:48.510Z,25.40
2022-09-07T14:09:18.163Z,25.40
2022-09-07T14:11:46.425Z,25.40
2022-09-07T14:14:17.102Z,25.40
2022-09-07T14:16:45.027Z,25.40
2022-09-07T14:19:12.493Z,25.50
2022-09-07T14:21:39.227Z,25.60
2022-09-07T14:24:14.478Z,25.80
2022-09-07T14:26:45.272Z,25.90
2022-09-07T14:29:19.565Z,26.00
2022-09-07T14:31:46.185Z,26.10
2022-09-07T14:34:12.847Z,26.10
2022-09-07T14:36:45.663Z,26.00
2022-09-07T14:39:13.563Z,26.00
2022-09-07T14:41:41.888Z,25.90
2022-09-07T14:44:26.394Z,25.80
2022-09-07T14:46:56.520Z,25.80
2022-09-07T14:49:23.747Z,25.70
2022-09-07T14:51:50.840Z,25.60
2022-09-07T14:54:21.193Z,25.60
2022-09-07T14:57:03.608Z,25.60
2022-09-07T14:59:43.363Z,25.50
2022-09-07T15:02:19.516Z,25.50
2022-09-07T15:04:46.693Z,25.50
2022-09-07T15:07:28.828Z,25.40
2022-09-07T15:09:55.436Z,25.40
2022-09-07T15:12:36.477Z,25.50
2022-09-07T15:15:26.243Z,25.60
2022-09-07T15:18:01.826Z,25.80
2022-09-07T15:20:36.529Z,26.00
2022-09-07T15:23:13.066Z,26.10
2022-09-07T15:25:40.640Z,26.10
2022-09-07T15:28:14.511Z,26.20
2022-09-07T15:30:41.951Z,26.10
2022-09-07T15:33:08.986Z,26.10
2022-09-07T15:35:35.575Z,26.00
2022-09-07T15:38:04.725Z,25.90
2022-09-07T15:40:36.383Z,25.80
2022-09-07T15:43:13.662Z,25.80
2022-09-07T15:45:43.354Z,25.70
2022-09-07T15:48:16.765Z,25.70
2022-09-07T15:50:43.661Z,25.60
2022-09-07T15:54:07.537Z,25.60
2022-09-07T15:55:56.949Z,25.60
2022-09-07T15:58:24.578Z,25.60
2022-09-07T16:01:51.473Z,25.50
2022-09-07T16:03:38.001Z,25.50
2022-09-07T16:06:09.662Z,25.50
2022-09-07T16:08:36.553Z,25.70
2022-09-07T16:11:18.440Z,25.80
2022-09-07T16:13:46.977Z,25.90
2022-09-07T16:16:15.619Z,26.10
2022-09-07T16:18:46.623Z,26.20
2022-09-07T16:21:13.800Z,26.30
2022-09-07T16:23:41.159Z,26.20
2022-09-07T16:26:07.875Z,26.20
2022-09-07T16:28:35.147Z,26.10
2022-09-07T16:31:06.807Z,26.00
2022-09-07T16:33:37.036Z,25.90
2022-09-07T16:36:05.033Z,25.90
2022-09-07T16:38:49.847Z,25.80
2022-09-07T16:41:17.611Z,25.70
2022-09-07T16:43:44.313Z,25.70
2022-09-07T16:46:14.883Z,25.70
2022-09-07T16:48:41.513Z,25.70
2022-09-07T16:51:09.573Z,25.60
2022-09-07T16:53:36.392Z,25.60
2022-09-07T16:56:08.012Z,25.60
2022-09-07T16:58:36.442Z,25.60
2022-09-07T17:01:04.505Z,25.70
2022-09-07T17:03:31.433Z,25.90
2022-09-07T17:06:01.140Z,26.00
2022-09-07T17:08:27.782Z,26.10
2022-09-07T17:11:00.950Z,26.30
2022-09-07T17:13:27.591Z,26.30
2022-09-07T17:15:54.426Z,26.30
2022-09-07T17:19:28.988Z,26.20
2022-09-07T17:21:07.783Z,26.10
2022-09-07T17:23:41.929Z,26.00
2022-09-07T17:26:16.860Z,26.00
2022-09-07T17:28:44.160Z,26.00
2022-09-07T17:32:21.952Z,25.90
2022-09-07T17:33:58.751Z,25.90
2022-09-07T17:36:25.772Z,25.80
2022-09-07T17:41:39.002Z,25.80
2022-09-07T17:44:06.596Z,25.70
2022-09-07T17:46:34.067Z,25.70
2022-09-07T17:49:01.061Z,25.70
2022-09-07T17:51:28.533Z,25.70
2022-09-07T17:53:59.046Z,25.80
2022-09-07T17:56:25.877Z,25.90
2022-09-07T17:58:53.750Z,26.10
2022-09-07T18:01:24.735Z,26.20
2022-09-07T18:03:53.276Z,26.30
2022-09-07T18:06:21.291Z,26.40
2022-09-07T18:08:48.022Z,26.30
2022-09-07T18:14:02.548Z,26.20
2022-09-07T18:16:29.899Z,26.10
2022-09-07T18:18:57.885Z,26.10
2022-09-07T18:21:27.473Z,26.00
2022-09-07T18:23:55.463Z,26.00
2022-09-07T18:26:22.330Z,25.90
2022-09-07T18:29:10.437Z,25.80
2022-09-07T18:31:36.849Z,25.80
2022-09-07T18:34:03.542Z,25.80
2022-09-07T18:36:30.224Z,25.80
2022-09-07T18:39:00.224Z,25.70
2022-09-07T18:41:26.893Z,25.70
2022-09-07T18:43:53.505Z,25.70
2022-09-07T18:46:21.045Z,25.60
2022-09-07T18:48:47.720Z,25.60
2022-09-07T18:51:14.527Z,25.70
2022-09-07T18:53:41.347Z,25.80
2022-09-07T18:56:08.726Z,25.90
2022-09-07T18:58:35.444Z,26.10
2022-09-07T19:01:05.672Z,26.30
2022-09-07T19:03:32.693Z,26.40
2022-09-07T19:05:59.910Z,26.30
2022-09-07T19:08:29.548Z,26.30
2022-09-07T19:10:56.212Z,26.30
2022-09-07T19:13:22.859Z,26.10
2022-09-07T19:15:49.801Z,26.10
2022-09-07T19:18:16.394Z,26.00
2022-09-07T19:20:43.260Z,26.00
2022-09-07T19:23:10.026Z,25.90
2022-09-07T19:25:39.387Z,25.90
2022-09-07T19:28:06.024Z,25.80
2022-09-07T19:30:34.058Z,25.80
2022-09-07T19:33:04.142Z,25.80
2022-09-07T19:35:34.107Z,25.70
2022-09-07T19:38:00.754Z,25.70
2022-09-07T19:40:27.539Z,25.70
2022-09-07T19:42:54.173Z,25.70
2022-09-07T19:45:20.832Z,25.70
2022-09-07T19:47:50.542Z,25.60
2022-09-07T19:50:19.458Z,25.60
2022-09-07T19:52:46.592Z,25.60
2022-09-07T19:55:13.245Z,25.60
2022-09-07T19:57:40.055Z,25.70
2022-09-07T20:00:07.162Z,25.80
2022-09-07T20:02:33.900Z,25.90
2022-09-07T20:05:00.840Z,26.10
2022-09-07T20:07:27.628Z,26.20
2022-09-07T20:09:54.274Z,26.30
2022-09-07T20:12:20.868Z,26.30
2022-09-07T20:14:47.627Z,26.30
2022-09-07T20:17:14.460Z,26.20
2022-09-07T20:19:41.093Z,26.10
2022-09-07T20:22:07.700Z,26.00
2022-09-07T20:24:35.155Z,26.00
2022-09-07T20:27:02.907Z,25.90
2022-09-07T20:29:30.118Z,25.80
2022-09-07T20:31:57.581Z,25.80
2022-09-07T20:34:24.494Z,25.80
2022-09-07T20:36:51.294Z,25.80
2022-09-07T20:39:19.299Z,25.70
2022-09-07T20:41:45.976Z,25.70
2022-09-07T20:44:12.757Z,25.70
2022-09-07T20:46:39.469Z,25.60
2022-09-07T20:49:06.161Z,25.70
2022-09-07T20:51:33.165Z,25.60
2022-09-07T20:53:59.803Z,25.60
2022-09-07T20:56:27.350Z,25.60
2022-09-07T20:58:55.011Z,25.70
2022-09-07T21:01:21.999Z,25.80
2022-09-07T21:03:49.610Z,25.90
2022-09-07T21:06:16.541Z,26.10
2022-09-07T21:08:43.546Z,26.20
2022-09-07T21:11:10.979Z,26.30
2022-09-07T21:13:37.561Z,26.40
2022-09-07T21:16:05.578Z,26.40
2022-09-07T21:18:33.571Z,26.30
2022-09-07T21:21:19.293Z,26.30
2022-09-07T21:23:46.835Z,26.20
2022-09-07T21:26:13.486Z,26.10
2022-09-07T21:28:40.083Z,26.00
2022-09-07T21:31:06.982Z,25.90
2022-09-07T21:33:34.114Z,25.90
2022-09-07T21:36:07.865Z,25.80
2022-09-07T21:38:34.892Z,25.80
2022-09-07T21:41:11.394Z,25.80
2022-09-07T21:43:38.078Z,25.70
2022-09-07T21:46:08.004Z,25.70
2022-09-07T21:48:34.992Z,25.70
2022-09-07T21:51:01.659Z,25.70
2022-09-07T21:53:28.246Z,25.70
2022-09-07T21:55:58.495Z,25.70
2022-09-07T21:58:25.465Z,25.60
2022-09-07T22:00:53.849Z,25.60
2022-09-07T22:03:21.106Z,25.60
2022-09-07T22:05:47.763Z,25.60
2022-09-07T22:08:14.466Z,25.70
2022-09-07T22:10:41.405Z,25.80
2022-09-07T22:13:08.001Z,26.00
2022-09-07T22:15:37.554Z,26.00
2022-09-07T22:18:04.756Z,26.20
2022-09-07T22:20:31.727Z,26.30
2022-09-07T22:22:58.413Z,26.40
2022-09-07T22:25:25.017Z,26.30
2022-09-07T22:27:51.625Z,26.20
2022-09-07T22:30:18.582Z,26.20
2022-09-07T22:32:50.286Z,26.10
2022-09-07T22:35:17.353Z,26.10
2022-09-07T22:37:43.950Z,26.00
2022-09-07T22:40:12.338Z,25.90
2022-09-07T22:42:38.964Z,25.90
2022-09-07T22:45:06.093Z,25.80
2022-09-07T22:47:32.730Z,25.80
2022-09-07T22:49:59.864Z,25.80
2022-09-07T22:52:26.442Z,25.70
2022-09-07T22:54:53.024Z,25.70
2022-09-07T22:57:19.606Z,25.70
2022-09-07T22:59:46.487Z,25.70
2022-09-07T23:02:13.123Z,25.60
2022-09-07T23:04:39.891Z,25.60
2022-09-07T23:07:07.692Z,25.60
2022-09-07T23:09:34.370Z,25.60
2022-09-07T23:12:00.957Z,25.60
2022-09-07T23:14:27.609Z,25.60
2022-09-07T23:16:54.215Z,25.60
2022-09-07T23:19:20.874Z,25.70
2022-09-07T23:21:47.484Z,25.90
2022-09-07T23:24:14.685Z,26.00
2022-09-07T23:26:41.346Z,26.10
2022-09-07T23:29:08.110Z,26.20
2022-09-07T23:31:34.912Z,26.30
2022-09-07T23:34:01.776Z,26.40
2022-09-07T23:36:28.414Z,26.30
2022-09-07T23:38:56.111Z,26.20
2022-09-07T23:41:22.979Z,26.20
2022-09-07T23:43:49.569Z,26.10
2022-09-07T23:46:16.388Z,26.00
2022-09-07T23:48:43.846Z,25.90
2022-09-07T23:51:10.514Z,25.90
2022-09-07T23:53:37.140Z,25.90
2022-09-07T23:56:03.911Z,25.80
2022-09-07T23:58:30.480Z,25.80
